sensor_id;sensor_type;location;lat;lon;timestamp;temperature;humidity
45315;SHT31;31051;51.540;5.852;2023-07-13T09:12:55;19.0;68.1
45315;SHT31;31051;51.540;5.852;2023-07-13T09:25:53;19.3;68.2
45315;SHT31;31051;51.540;5.852;2023-07-13T09:38:43;19.0;70.9
45315;SHT31;31051;51.540;5.852;2023-07-13T09:51:41;20.0;67.5
45315;SHT31;31051;51.540;5.852;2023-07-13T10:04:29;20.4;61.9
45315;SHT31;31051;51.540;5.852;2023-07-13T10:17:19;20.5;62.0
45315;SHT31;31051;51.540;5.852;2023-07-13T10:30:18;20.7;63.2
45315;SHT31;31051;51.540;5.852;2023-07-13T10:43:18;21.1;64.5
45315;SHT31;31051;51.540;5.852;2023-07-13T10:56:17;20.9;62.3
45315;SHT31;31051;51.540;5.852;2023-07-13T11:09:16;20.6;64.8
45315;SHT31;31051;51.540;5.852;2023-07-13T11:22:04;20.6;60.5
45315;SHT31;31051;51.540;5.852;2023-07-13T11:34:52;20.2;62.1
45315;SHT31;31051;51.540;5.852;2023-07-13T11:47:41;21.0;64.9
45315;SHT31;31051;51.540;5.852;2023-07-13T12:00:29;20.7;64.7
45315;SHT31;31051;51.540;5.852;2023-07-13T12:13:19;20.4;66.4
45315;SHT31;31051;51.540;5.852;2023-07-13T12:26:18;20.1;67.3
45315;SHT31;31051;51.540;5.852;2023-07-13T12:39:16;21.1;66.0
45315;SHT31;31051;51.540;5.852;2023-07-13T12:52:06;19.7;67.2
45315;SHT31;31051;51.540;5.852;2023-07-13T13:05:05;21.1;68.8
45315;SHT31;31051;51.540;5.852;2023-07-13T13:18:04;22.0;59.0
45315;SHT31;31051;51.540;5.852;2023-07-13T13:30:53;21.5;57.4
45315;SHT31;31051;51.540;5.852;2023-07-13T13:43:52;20.6;62.1
45315;SHT31;31051;51.540;5.852;2023-07-13T13:56:52;17.8;73.7
45315;SHT31;31051;51.540;5.852;2023-07-13T14:09:50;17.2;79.4
45315;SHT31;31051;51.540;5.852;2023-07-13T14:22:39;17.5;80.6
45315;SHT31;31051;51.540;5.852;2023-07-13T14:35:39;18.3;80.6
45315;SHT31;31051;51.540;5.852;2023-07-13T14:48:37;18.8;75.9
45315;SHT31;31051;51.540;5.852;2023-07-13T15:01:26;18.8;74.5
45315;SHT31;31051;51.540;5.852;2023-07-13T15:14:14;19.4;68.8
45315;SHT31;31051;51.540;5.852;2023-07-13T15:27:02;19.8;65.0
45315;SHT31;31051;51.540;5.852;2023-07-13T15:39:51;19.6;65.6
45315;SHT31;31051;51.540;5.852;2023-07-13T15:52:40;19.6;65.1
45315;SHT31;31051;51.540;5.852;2023-07-13T16:05:39;19.6;67.7
45315;SHT31;31051;51.540;5.852;2023-07-13T16:18:39;20.1;64.5
45315;SHT31;31051;51.540;5.852;2023-07-13T16:31:37;20.5;63.9
45315;SHT31;31051;51.540;5.852;2023-07-13T16:44:27;20.3;63.9
45315;SHT31;31051;51.540;5.852;2023-07-13T16:57:26;20.0;65.7
45315;SHT31;31051;51.540;5.852;2023-07-13T17:10:26;20.1;65.0
45315;SHT31;31051;51.540;5.852;2023-07-13T17:23:24;20.5;64.3
45315;SHT31;31051;51.540;5.852;2023-07-13T17:36:12;20.0;64.3
45315;SHT31;31051;51.540;5.852;2023-07-13T17:49:02;19.6;66.3
45315;SHT31;31051;51.540;5.852;2023-07-13T18:02:01;19.4;66.5
45315;SHT31;31051;51.540;5.852;2023-07-13T18:14:59;19.4;66.4
45315;SHT31;31051;51.540;5.852;2023-07-13T18:27:49;19.5;66.0
45315;SHT31;31051;51.540;5.852;2023-07-13T18:40:48;19.1;66.7
45315;SHT31;31051;51.540;5.852;2023-07-13T18:53:48;18.9;68.6
45315;SHT31;31051;51.540;5.852;2023-07-13T19:06:46;18.6;71.9
45315;SHT31;31051;51.540;5.852;2023-07-13T19:19:34;18.2;71.9
45315;SHT31;31051;51.540;5.852;2023-07-13T19:32:24;18.1;72.4
45315;SHT31;31051;51.540;5.852;2023-07-13T19:45:22;17.9;73.8
45315;SHT31;31051;51.540;5.852;2023-07-13T19:58:11;17.6;73.8
45315;SHT31;31051;51.540;5.852;2023-07-13T20:11:00;17.4;74.6
45315;SHT31;31051;51.540;5.852;2023-07-13T20:23:58;17.1;76.0
45315;SHT31;31051;51.540;5.852;2023-07-13T20:36:48;16.8;77.4
45315;SHT31;31051;51.540;5.852;2023-07-13T20:49:47;16.5;79.5
45315;SHT31;31051;51.540;5.852;2023-07-13T21:02:46;16.2;80.9
45315;SHT31;31051;51.540;5.852;2023-07-13T21:15:46;16.0;80.4
45315;SHT31;31051;51.540;5.852;2023-07-13T21:28:45;15.9;80.9
45315;SHT31;31051;51.540;5.852;2023-07-13T21:41:45;16.1;82.3
45315;SHT31;31051;51.540;5.852;2023-07-13T21:54:44;16.1;82.9
45315;SHT31;31051;51.540;5.852;2023-07-13T22:07:42;16.3;81.6
45315;SHT31;31051;51.540;5.852;2023-07-13T22:20:32;16.5;81.6
45315;SHT31;31051;51.540;5.852;2023-07-13T22:33:31;16.4;82.4
45315;SHT31;31051;51.540;5.852;2023-07-13T22:46:30;16.0;84.6
45315;SHT31;31051;51.540;5.852;2023-07-13T22:59:30;16.1;84.3
45315;SHT31;31051;51.540;5.852;2023-07-13T23:12:29;16.0;85.1
45315;SHT31;31051;51.540;5.852;2023-07-13T23:25:29;16.0;85.8
45315;SHT31;31051;51.540;5.852;2023-07-13T23:38:28;16.0;85.3
45315;SHT31;31051;51.540;5.852;2023-07-13T23:51:27;15.7;84.1
